Time;durP1;ratioP1;P1;durP2;ratioP2;P2;SDS_P1;SDS_P2;PMS_P1;PMS_P2;Temp;Humidity;BMP_temperature;BMP_pressure;BME280_temperature;BME280_humidity;BME280_pressure;Samples;Min_cycle;Max_cycle;Signal;HPM_P1;HPM_P2
2024/02/11 00:00:18;;;;;;;51.20;25.80;;;;;;;6.93;100.00;97767.91;217713;1261;141449;-72
2024/02/11 00:05:44;;;;;;;38.80;23.50;;;;;;;6.95;100.00;97765.81;217314;1259;236711;-72
2024/02/11 00:10:49;;;;;;;35.70;20.90;;;;;;;6.98;100.00;97766.46;216705;1259;139993;-73
2024/02/11 00:15:54;;;;;;;36.60;21.10;;;;;;;7.02;100.00;97768.02;216468;1262;142028;-72
2024/02/11 00:21:01;;;;;;;153.30;57.80;;;;;;;7.03;100.00;97766.80;216635;1261;140035;-72
2024/02/11 00:26:06;;;;;;;136.60;47.80;;;;;;;7.03;100.00;97767.89;216756;1260;140367;-72
2024/02/11 00:31:11;;;;;;;81.50;35.80;;;;;;;7.04;100.00;97769.95;217294;1259;140875;-72
2024/02/11 00:36:16;;;;;;;158.80;55.10;;;;;;;7.04;100.00;97767.09;216606;1259;141123;-72
2024/02/11 00:41:20;;;;;;;95.00;37.00;;;;;;;7.06;100.00;97763.23;216531;1259;141170;-72
2024/02/11 00:46:25;;;;;;;51.20;26.30;;;;;;;7.09;100.00;97760.39;217540;1259;140881;-72
2024/02/11 00:51:29;;;;;;;51.80;28.70;;;;;;;7.12;100.00;97760.24;217992;1259;140077;-73
2024/02/11 00:56:33;;;;;;;40.00;24.10;;;;;;;7.14;100.00;97756.64;218518;1259;140185;-72
2024/02/11 01:01:40;;;;;;;73.40;36.50;;;;;;;7.16;100.00;97745.95;216834;1259;140931;-73
2024/02/11 01:06:45;;;;;;;41.50;24.10;;;;;;;7.18;100.00;97740.71;216677;1259;141045;-72
2024/02/11 01:11:50;;;;;;;65.70;32.40;;;;;;;7.21;100.00;97737.38;216525;1259;141633;-72
2024/02/11 01:16:54;;;;;;;35.30;21.70;;;;;;;7.23;100.00;97741.04;216582;1261;140215;-73
2024/02/11 01:21:57;;;;;;;37.20;21.60;;;;;;;7.26;100.00;97737.61;216795;1260;140111;-73
2024/02/11 01:27:01;;;;;;;35.30;22.70;;;;;;;7.29;100.00;97740.05;216638;1260;140057;-72
2024/02/11 01:32:06;;;;;;;43.40;21.60;;;;;;;7.30;100.00;97735.98;216656;1259;141922;-72
2024/02/11 01:37:10;;;;;;;43.50;25.90;;;;;;;7.31;100.00;97734.86;216736;1259;140819;-71
2024/02/11 01:42:14;;;;;;;33.20;20.50;;;;;;;7.34;100.00;97730.40;216504;1259;141537;-72
2024/02/11 01:47:19;;;;;;;31.80;21.00;;;;;;;7.36;100.00;97729.40;217051;1259;140634;-72
2024/02/11 01:52:28;;;;;;;38.20;21.30;;;;;;;7.38;100.00;97730.41;216570;1262;140947;-71
2024/02/11 01:57:33;;;;;;;28.80;18.70;;;;;;;7.38;100.00;97734.80;216676;1260;141632;-71
2024/02/11 02:02:38;;;;;;;34.50;20.20;;;;;;;7.38;100.00;97736.02;217324;1259;140423;-72
2024/02/11 02:07:43;;;;;;;30.60;18.10;;;;;;;7.40;100.00;97737.20;216544;1262;140166;-71
2024/02/11 02:12:47;;;;;;;33.60;20.70;;;;;;;7.41;100.00;97739.27;216928;1260;140909;-72
2024/02/11 02:17:51;;;;;;;30.40;18.10;;;;;;;7.40;100.00;97735.82;217215;1259;140231;-71
2024/02/11 02:22:58;;;;;;;27.50;19.60;;;;;;;7.41;100.00;97738.73;216925;1262;140370;-72
2024/02/11 02:28:05;;;;;;;38.70;19.70;;;;;;;7.39;100.00;97735.13;217468;1258;141041;-72
2024/02/11 02:33:09;;;;;;;39.60;23.50;;;;;;;7.38;100.00;97740.36;217218;1257;140508;-71
2024/02/11 02:38:14;;;;;;;38.80;22.70;;;;;;;7.36;100.00;97742.65;216820;1257;140823;-72
2024/02/11 02:43:19;;;;;;;29.10;18.60;;;;;;;7.32;100.00;97741.71;219636;1257;140793;-72
2024/02/11 02:48:23;;;;;;;34.10;20.90;;;;;;;7.30;100.00;97734.80;218339;1257;140799;-72
2024/02/11 02:53:28;;;;;;;31.10;20.90;;;;;;;7.28;100.00;97735.55;217449;1257;140911;-72
2024/02/11 02:58:33;;;;;;;36.60;23.70;;;;;;;7.25;100.00;97735.96;217496;1258;140411;-71
2024/02/11 03:03:37;;;;;;;33.10;20.90;;;;;;;7.24;100.00;97733.47;216764;1261;140164;-71
2024/02/11 03:08:42;;;;;;;32.00;18.20;;;;;;;7.21;100.00;97731.81;216649;1257;141101;-71
2024/02/11 03:13:47;;;;;;;25.10;17.90;;;;;;;7.17;100.00;97737.52;216740;1258;139988;-72
2024/02/11 03:18:52;;;;;;;27.10;18.90;;;;;;;7.14;100.00;97732.59;216927;1261;141104;-72
2024/02/11 03:23:56;;;;;;;30.00;19.40;;;;;;;7.10;100.00;97732.15;217476;1259;141172;-72
2024/02/11 03:29:01;;;;;;;28.00;18.10;;;;;;;7.06;100.00;97727.95;217153;1259;141163;-72
2024/02/11 03:34:05;;;;;;;31.90;18.60;;;;;;;7.06;100.00;97722.27;216811;1261;140718;-71
2024/02/11 03:39:12;;;;;;;38.20;20.80;;;;;;;7.06;100.00;97723.61;216663;1258;141154;-71
2024/02/11 03:44:17;;;;;;;30.30;19.10;;;;;;;7.08;100.00;97721.75;216656;1261;140978;-71
2024/02/11 03:49:23;;;;;;;22.20;14.90;;;;;;;7.10;100.00;97722.45;217479;1257;140792;-72
2024/02/11 03:54:28;;;;;;;34.40;18.70;;;;;;;7.10;100.00;97719.70;216774;1261;140071;-70
2024/02/11 03:59:33;;;;;;;31.40;19.30;;;;;;;7.13;100.00;97717.70;216738;1257;140992;-71
2024/02/11 04:04:45;;;;;;;27.90;19.60;;;;;;;7.15;100.00;97715.68;216645;1257;140242;-70
2024/02/11 04:09:52;;;;;;;33.00;18.00;;;;;;;7.17;100.00;97708.75;216755;1259;140251;-71
2024/02/11 04:14:58;;;;;;;24.00;15.50;;;;;;;7.17;100.00;97709.23;216618;1259;141045;-70
2024/02/11 04:20:08;;;;;;;32.10;17.60;;;;;;;7.17;100.00;97705.14;216917;1257;139939;-71
2024/02/11 04:25:14;;;;;;;30.10;17.20;;;;;;;7.17;100.00;97702.55;216679;1257;142496;-71
2024/02/11 04:30:20;;;;;;;30.70;20.40;;;;;;;7.17;100.00;97698.58;216781;1259;140565;-72
2024/02/11 04:35:25;;;;;;;38.60;23.00;;;;;;;7.20;100.00;97693.77;216978;1257;140775;-71
2024/02/11 04:40:29;;;;;;;30.10;18.20;;;;;;;7.22;100.00;97693.45;216345;1258;406127;-71
2024/02/11 04:45:37;;;;;;;28.70;16.70;;;;;;;7.19;100.00;97697.69;216996;1259;141036;-70
2024/02/11 04:50:46;;;;;;;30.80;18.60;;;;;;;7.18;100.00;97696.20;216454;1257;144504;-71
2024/02/11 04:55:51;;;;;;;30.30;18.80;;;;;;;7.21;100.00;97689.63;216762;1257;140184;-72
2024/02/11 05:00:55;;;;;;;24.70;16.70;;;;;;;7.26;100.00;97683.61;216819;1258;140318;-71
2024/02/11 05:06:07;;;;;;;35.20;20.60;;;;;;;7.32;100.00;97678.63;216819;1258;143275;-71
2024/02/11 05:11:12;;;;;;;30.50;21.10;;;;;;;7.35;100.00;97676.02;216741;1257;142028;-71
2024/02/11 05:16:17;;;;;;;29.30;20.50;;;;;;;7.38;100.00;97671.89;217026;1258;140621;-72
2024/02/11 05:21:22;;;;;;;27.80;19.80;;;;;;;7.39;100.00;97665.73;216814;1261;140809;-71
2024/02/11 05:26:27;;;;;;;27.70;20.40;;;;;;;7.40;100.00;97669.55;217319;1258;140068;-72
2024/02/11 05:31:31;;;;;;;30.10;18.60;;;;;;;7.42;100.00;97663.93;216918;1259;140918;-71
2024/02/11 05:36:40;;;;;;;28.80;17.60;;;;;;;7.43;100.00;97665.84;217853;1257;141062;-71
2024/02/11 05:41:45;;;;;;;28.30;19.50;;;;;;;7.44;100.00;97664.94;216924;1257;142257;-70
2024/02/11 05:46:49;;;;;;;39.80;21.50;;;;;;;7.45;100.00;97665.90;216786;1258;140106;-71
2024/02/11 05:51:53;;;;;;;33.40;19.90;;;;;;;7.46;100.00;97670.58;216654;1262;140629;-72
2024/02/11 05:57:00;;;;;;;29.90;17.60;;;;;;;7.47;100.00;97671.79;217743;1257;139992;-72
2024/02/11 06:02:05;;;;;;;29.40;18.80;;;;;;;7.45;100.00;97672.52;216962;1260;141162;-72
2024/02/11 06:07:10;;;;;;;30.80;17.30;;;;;;;7.42;100.00;97680.11;218014;1258;141316;-71
2024/02/11 06:12:16;;;;;;;25.10;18.30;;;;;;;7.42;100.00;97678.94;216706;1257;140893;-72
2024/02/11 06:17:22;;;;;;;24.60;16.90;;;;;;;7.43;100.00;97676.66;216885;1261;141115;-71
2024/02/11 06:22:27;;;;;;;23.80;17.50;;;;;;;7.44;100.00;97679.20;217181;1261;140743;-71
2024/02/11 06:27:32;;;;;;;28.20;18.70;;;;;;;7.45;100.00;97675.02;218887;1259;140864;-71
2024/02/11 06:32:42;;;;;;;30.20;19.30;;;;;;;7.50;100.00;97674.39;219692;1257;140534;-72
2024/02/11 06:37:48;;;;;;;29.10;18.40;;;;;;;7.54;100.00;97672.33;219697;1258;140450;-72
2024/02/11 06:42:54;;;;;;;;;;;;;;;7.58;100.00;97674.30;219250;1259;140420;-71
2024/02/11 06:47:59;;;;;;;27.40;18.40;;;;;;;7.62;100.00;97671.27;218682;1257;126870;-71
2024/02/11 06:53:03;;;;;;;28.70;18.10;;;;;;;7.67;100.00;97672.36;216795;1258;140381;-72
2024/02/11 06:58:09;;;;;;;30.30;20.90;;;;;;;7.73;100.00;97675.70;217047;1257;141114;-71
2024/02/11 07:03:14;;;;;;;34.40;19.60;;;;;;;7.77;100.00;97674.65;216790;1258;141344;-69
2024/02/11 07:08:21;;;;;;;24.80;19.40;;;;;;;7.81;100.00;97671.84;216645;1257;140702;-69
2024/02/11 07:13:28;;;;;;;36.30;21.70;;;;;;;7.86;100.00;97674.75;217679;1258;140333;-70
2024/02/11 07:18:37;;;;;;;32.40;19.90;;;;;;;7.89;100.00;97674.86;218849;1258;140554;-70
2024/02/11 07:23:41;;;;;;;28.50;19.50;;;;;;;7.93;100.00;97673.48;217176;1259;140828;-70
2024/02/11 07:28:48;;;;;;;32.50;22.40;;;;;;;7.99;100.00;97667.55;217310;1259;140462;-70
2024/02/11 07:33:53;;;;;;;34.80;20.70;;;;;;;8.08;100.00;97667.28;217562;1257;141489;-70
2024/02/11 07:38:58;;;;;;;31.40;21.00;;;;;;;8.19;100.00;97666.26;217260;1258;142227;-70
2024/02/11 07:44:02;;;;;;;35.30;24.00;;;;;;;8.28;100.00;97668.55;217143;1258;139982;-71
2024/02/11 07:49:07;;;;;;;29.60;18.90;;;;;;;8.38;100.00;97666.80;217598;1258;142463;-70
2024/02/11 07:54:12;;;;;;;27.80;17.60;;;;;;;8.47;100.00;97667.15;216781;1260;141527;-73
2024/02/11 07:59:17;;;;;;;32.50;20.40;;;;;;;8.56;100.00;97667.80;217472;1258;140296;-75
2024/02/11 08:04:21;;;;;;;28.40;19.30;;;;;;;8.68;100.00;97673.70;216868;1260;141045;-73
2024/02/11 08:09:25;;;;;;;34.10;22.50;;;;;;;8.80;100.00;97682.73;217335;1260;141687;-74
2024/02/11 08:14:35;;;;;;;29.60;19.90;;;;;;;8.87;100.00;97684.77;217235;1260;141004;-74
2024/02/11 08:19:39;;;;;;;26.50;18.30;;;;;;;8.82;100.00;97686.77;217445;1262;141144;-76
2024/02/11 08:24:44;;;;;;;24.00;17.70;;;;;;;8.81;100.00;97679.98;217090;1258;140753;-71
2024/02/11 08:29:49;;;;;;;35.70;19.40;;;;;;;8.86;100.00;97674.20;219296;1258;140950;-72
2024/02/11 08:34:53;;;;;;;32.30;20.90;;;;;;;8.88;100.00;97674.83;217540;1258;141627;-72
2024/02/11 08:40:00;;;;;;;32.00;18.90;;;;;;;8.89;100.00;97675.39;217272;1260;140977;-70
2024/02/11 08:45:06;;;;;;;29.80;22.20;;;;;;;8.91;100.00;97672.84;217544;1259;141108;-72
2024/02/11 08:50:10;;;;;;;33.70;20.20;;;;;;;8.91;100.00;97673.37;216687;1260;141196;-72
2024/02/11 08:55:17;;;;;;;32.30;20.00;;;;;;;8.92;100.00;97674.38;216930;1259;140191;-70
2024/02/11 09:00:24;;;;;;;30.10;22.70;;;;;;;8.92;100.00;97673.89;216560;1260;141082;-70
2024/02/11 09:05:29;;;;;;;30.70;21.90;;;;;;;8.92;99.98;97672.52;217136;1260;143725;-71
2024/02/11 09:10:34;;;;;;;33.10;21.60;;;;;;;8.92;100.00;97671.34;216659;1261;140469;-71
2024/02/11 09:15:40;;;;;;;34.20;23.20;;;;;;;8.97;99.99;97667.98;217992;1257;141876;-72
2024/02/11 09:20:44;;;;;;;31.00;21.00;;;;;;;9.03;99.95;97666.72;216978;1260;141005;-71
2024/02/11 09:25:48;;;;;;;22.90;14.70;;;;;;;9.07;99.88;97665.48;216677;1258;140138;-71
2024/02/11 09:30:53;;;;;;;22.50;13.70;;;;;;;9.12;99.97;97664.50;216589;1257;154240;-70
2024/02/11 09:35:57;;;;;;;24.30;15.80;;;;;;;9.13;99.69;97666.14;216612;1261;140541;-71
2024/02/11 09:41:04;;;;;;;19.50;12.80;;;;;;;9.09;99.47;97669.73;216799;1258;141546;-70
2024/02/11 09:46:09;;;;;;;21.20;14.40;;;;;;;9.03;99.29;97670.39;216726;1258;140337;-71
2024/02/11 09:51:15;;;;;;;19.40;15.00;;;;;;;9.03;99.51;97670.81;216719;1262;140312;-70
2024/02/11 09:56:21;;;;;;;17.90;14.50;;;;;;;9.05;99.53;97663.79;216875;1259;140558;-71
2024/02/11 10:01:27;;;;;;;22.40;13.70;;;;;;;9.10;99.79;97658.77;216940;1262;140780;-70
2024/02/11 10:06:37;;;;;;;22.30;14.80;;;;;;;9.14;99.29;97651.58;216639;1260;140620;-71
2024/02/11 10:11:43;;;;;;;17.30;13.60;;;;;;;9.15;99.46;97647.36;216626;1258;140035;-71
2024/02/11 10:16:48;;;;;;;21.40;13.60;;;;;;;9.18;99.59;97647.65;217769;1260;140739;-73
2024/02/11 10:21:59;;;;;;;24.40;16.30;;;;;;;9.24;99.55;97641.60;219828;1260;140964;-71
2024/02/11 10:27:07;;;;;;;23.10;17.20;;;;;;;9.25;99.42;97636.00;219499;1256;140886;-73
2024/02/11 10:32:13;;;;;;;20.00;15.00;;;;;;;9.26;99.29;97631.69;219682;1258;141111;-71
2024/02/11 10:37:18;;;;;;;24.50;17.50;;;;;;;9.27;99.05;97628.60;218995;1259;141488;-70
2024/02/11 10:42:25;;;;;;;21.80;14.60;;;;;;;9.19;98.88;97627.16;216671;1262;140624;-71
2024/02/11 10:47:32;;;;;;;21.80;16.00;;;;;;;9.09;98.85;97619.38;217595;1262;141298;-71
2024/02/11 10:52:41;;;;;;;24.50;14.70;;;;;;;9.06;99.21;97615.95;216713;1259;140940;-72
2024/02/11 10:57:52;;;;;;;21.00;14.40;;;;;;;9.02;99.30;97616.13;216354;1262;140349;-75
2024/02/11 11:02:59;;;;;;;20.40;16.10;;;;;;;9.01;99.52;97609.71;216757;1259;139991;-73
2024/02/11 11:08:07;;;;;;;16.90;13.50;;;;;;;9.04;99.83;97607.94;216733;1262;140889;-72
2024/02/11 11:13:15;;;;;;;18.70;16.50;;;;;;;9.08;99.81;97603.71;217141;1260;141608;-72
2024/02/11 11:18:26;;;;;;;23.20;16.50;;;;;;;9.07;99.93;97598.77;216569;1261;141576;-73
2024/02/11 11:23:30;;;;;;;24.60;16.00;;;;;;;9.12;100.00;97596.30;216548;1261;141159;-72
2024/02/11 11:28:40;;;;;;;26.70;16.20;;;;;;;9.12;99.91;97600.88;216878;1261;141799;-71
2024/02/11 11:33:44;;;;;;;35.30;20.30;;;;;;;9.12;100.00;97601.13;216572;1261;140683;-72
2024/02/11 11:38:48;;;;;;;21.00;15.20;;;;;;;9.11;100.00;97594.08;216792;1257;140294;-73
2024/02/11 11:44:00;;;;;;;21.80;15.50;;;;;;;9.11;99.99;97588.59;216889;1262;140933;-72
2024/02/11 11:49:04;;;;;;;20.00;15.40;;;;;;;9.14;100.00;97589.11;217143;1261;141946;-72
2024/02/11 11:54:08;;;;;;;23.80;15.60;;;;;;;9.09;100.00;97585.79;216968;1260;141146;-72
2024/02/11 11:59:12;;;;;;;19.80;14.70;;;;;;;9.08;100.00;97587.65;216785;1261;141257;-72
2024/02/11 12:04:17;;;;;;;29.70;18.10;;;;;;;9.11;100.00;97588.22;218768;1260;140279;-70
2024/02/11 12:09:22;;;;;;;24.50;16.30;;;;;;;9.10;100.00;97584.45;216758;1261;140615;-73
2024/02/11 12:14:25;;;;;;;22.80;15.00;;;;;;;9.10;100.00;97583.50;219712;1258;140954;-74
2024/02/11 12:19:37;;;;;;;25.50;17.70;;;;;;;9.12;100.00;97576.63;218771;1262;141588;-73
2024/02/11 12:24:42;;;;;;;26.10;16.40;;;;;;;9.11;100.00;97570.99;217842;1261;231503;-73
2024/02/11 12:29:55;;;;;;;21.00;14.30;;;;;;;9.15;100.00;97560.61;216759;1259;140292;-71
2024/02/11 12:35:00;;;;;;;20.70;14.60;;;;;;;9.13;100.00;97557.48;216790;1262;140556;-72
2024/02/11 12:40:05;;;;;;;18.60;13.60;;;;;;;9.15;100.00;97556.67;216810;1262;140499;-72
2024/02/11 12:45:09;;;;;;;20.10;14.10;;;;;;;9.17;100.00;97550.60;216821;1262;140359;-75
2024/02/11 12:50:19;;;;;;;30.10;17.90;;;;;;;9.15;100.00;97546.95;216695;1260;140613;-73
2024/02/11 12:55:24;;;;;;;65.00;30.30;;;;;;;9.16;100.00;97547.58;216827;1261;140664;-71
2024/02/11 13:00:29;;;;;;;31.40;17.40;;;;;;;9.16;100.00;97542.73;216405;1262;141943;-72
2024/02/11 13:05:34;;;;;;;39.40;23.00;;;;;;;9.19;100.00;97541.14;216511;1262;140754;-75
2024/02/11 13:10:38;;;;;;;22.90;15.30;;;;;;;9.18;100.00;97536.64;216890;1261;140015;-72
2024/02/11 13:15:45;;;;;;;31.70;18.40;;;;;;;9.18;100.00;97537.66;216680;1259;141093;-70
2024/02/11 13:20:52;;;;;;;17.40;13.40;;;;;;;9.17;100.00;97536.46;217253;1258;140519;-75
2024/02/11 13:26:00;;;;;;;15.00;12.40;;;;;;;9.18;100.00;97539.27;217162;1262;140870;-74
2024/02/11 13:31:04;;;;;;;18.10;13.80;;;;;;;9.16;100.00;97538.84;217470;1263;141093;-74
2024/02/11 13:36:27;;;;;;;17.00;12.70;;;;;;;9.14;100.00;97542.75;216862;1262;140418;-72
2024/02/11 13:41:31;;;;;;;16.80;14.20;;;;;;;9.12;100.00;97539.36;216461;1261;140499;-72
2024/02/11 13:46:35;;;;;;;24.20;16.10;;;;;;;9.11;100.00;97533.90;216599;1264;141214;-74
2024/02/11 13:51:39;;;;;;;23.80;15.10;;;;;;;9.12;100.00;97527.89;216931;1262;140804;-75
2024/02/11 13:56:44;;;;;;;17.70;13.70;;;;;;;9.07;100.00;97526.90;216862;1262;140358;-73
2024/02/11 14:01:50;;;;;;;16.20;13.40;;;;;;;9.09;100.00;97528.81;217082;1262;140282;-76
2024/02/11 14:06:54;;;;;;;21.40;14.10;;;;;;;9.09;100.00;97526.73;217544;1262;142173;-76
2024/02/11 14:11:58;;;;;;;22.60;16.00;;;;;;;9.07;100.00;97529.14;216999;1262;140974;-74
2024/02/11 14:17:03;;;;;;;46.90;24.50;;;;;;;9.02;100.00;97531.52;216999;1263;140521;-71
2024/02/11 14:22:08;;;;;;;46.30;22.50;;;;;;;8.98;100.00;97526.71;217853;1258;140899;-71
2024/02/11 14:27:13;;;;;;;99.50;39.30;;;;;;;9.00;100.00;97526.16;217333;1263;140319;-75
2024/02/11 14:32:17;;;;;;;99.70;35.90;;;;;;;9.01;100.00;97521.64;218302;1262;141909;-75
2024/02/11 14:37:22;;;;;;;55.40;23.50;;;;;;;9.00;100.00;97529.93;216998;1263;140233;-72
2024/02/11 14:42:26;;;;;;;28.20;15.90;;;;;;;9.01;100.00;97530.88;217026;1258;143381;-72
2024/02/11 14:47:32;;;;;;;17.50;12.00;;;;;;;9.00;100.00;97529.40;217381;1262;140117;-72
2024/02/11 14:52:37;;;;;;;15.30;11.00;;;;;;;8.97;100.00;97529.27;216623;1263;140262;-71
2024/02/11 14:57:42;;;;;;;20.60;11.30;;;;;;;8.95;100.00;97529.01;216556;1263;140534;-71
2024/02/11 15:02:46;;;;;;;15.30;11.00;;;;;;;8.91;100.00;97527.39;216755;1263;141515;-71
2024/02/11 15:07:50;;;;;;;16.60;11.80;;;;;;;8.92;100.00;97526.64;216845;1260;139928;-70
2024/02/11 15:12:54;;;;;;;27.90;13.00;;;;;;;8.91;100.00;97522.93;217565;1258;140280;-69
2024/02/11 15:17:59;;;;;;;22.40;15.30;;;;;;;8.91;100.00;97520.11;216996;1257;140832;-72
2024/02/11 15:23:05;;;;;;;28.60;16.60;;;;;;;8.89;100.00;97523.69;217072;1258;140788;-73
2024/02/11 15:28:09;;;;;;;23.10;14.90;;;;;;;8.85;100.00;97524.73;216904;1262;140647;-72
2024/02/11 15:33:13;;;;;;;24.90;13.90;;;;;;;8.83;100.00;97525.04;216783;1257;140151;-74
2024/02/11 15:38:18;;;;;;;30.10;15.90;;;;;;;8.80;100.00;97527.86;217272;1257;140644;-72
2024/02/11 15:43:24;;;;;;;22.30;15.80;;;;;;;8.76;100.00;97523.53;217322;1263;139885;-71
2024/02/11 15:48:31;;;;;;;22.50;13.60;;;;;;;8.73;100.00;97529.98;216856;1264;140156;-70
2024/02/11 15:53:36;;;;;;;20.80;15.90;;;;;;;8.68;100.00;97529.42;216736;1257;140422;-71
2024/02/11 15:58:41;;;;;;;24.70;12.90;;;;;;;8.66;100.00;97534.05;217935;1258;140396;-70
2024/02/11 16:03:46;;;;;;;21.50;13.40;;;;;;;8.63;100.00;97531.52;217020;1258;141111;-73
2024/02/11 16:08:51;;;;;;;24.20;14.30;;;;;;;8.63;100.00;97534.50;217036;1258;140291;-69
2024/02/11 16:13:55;;;;;;;17.50;13.10;;;;;;;8.59;100.00;97537.86;219221;1257;140205;-70
2024/02/11 16:19:00;;;;;;;16.20;14.00;;;;;;;8.57;100.00;97540.08;219488;1257;141197;-72
2024/02/11 16:24:04;;;;;;;21.90;15.50;;;;;;;8.56;100.00;97542.73;217277;1263;141560;-71
2024/02/11 16:29:12;;;;;;;16.00;11.70;;;;;;;8.55;100.00;97545.04;217519;1257;140249;-71
2024/02/11 16:34:17;;;;;;;19.90;12.20;;;;;;;8.52;100.00;97548.50;216700;1263;140877;-71
2024/02/11 16:39:22;;;;;;;16.70;12.30;;;;;;;8.51;100.00;97550.42;216530;1260;646720;-72
2024/02/11 16:44:26;;;;;;;19.80;12.00;;;;;;;8.50;100.00;97548.94;217889;1258;140827;-69
2024/02/11 16:49:33;;;;;;;18.60;14.00;;;;;;;8.48;100.00;97552.92;218012;1258;141246;-69
2024/02/11 16:54:38;;;;;;;24.10;14.60;;;;;;;8.48;100.00;97552.66;216717;1259;140593;-69
2024/02/11 16:59:44;;;;;;;35.20;17.90;;;;;;;8.45;100.00;97549.33;216854;1262;140282;-69
2024/02/11 17:04:49;;;;;;;43.10;18.90;;;;;;;8.44;100.00;97549.44;217559;1259;140733;-68
2024/02/11 17:09:54;;;;;;;32.60;18.40;;;;;;;8.42;100.00;97556.46;217116;1261;140544;-70
2024/02/11 17:14:58;;;;;;;18.70;13.00;;;;;;;8.40;100.00;97559.86;217031;1262;141458;-71
2024/02/11 17:20:07;;;;;;;16.70;13.30;;;;;;;8.37;100.00;97564.38;217467;1262;141944;-71
2024/02/11 17:25:12;;;;;;;16.80;13.30;;;;;;;8.35;100.00;97563.76;217051;1261;140337;-70
2024/02/11 17:30:16;;;;;;;13.40;10.80;;;;;;;8.33;100.00;97560.41;217103;1258;141231;-69
2024/02/11 17:35:21;;;;;;;17.20;13.00;;;;;;;8.32;100.00;97558.88;216833;1257;140122;-70
2024/02/11 17:40:29;;;;;;;17.30;11.70;;;;;;;8.32;100.00;97555.79;217401;1262;140760;-77
2024/02/11 17:45:34;;;;;;;25.30;17.20;;;;;;;8.31;100.00;97553.77;217317;1258;142421;-73
2024/02/11 17:50:41;;;;;;;24.70;14.10;;;;;;;8.31;100.00;97552.29;217173;1258;142161;-73
2024/02/11 17:55:45;;;;;;;20.00;15.10;;;;;;;8.31;100.00;97554.84;216948;1258;140579;-72
2024/02/11 18:00:51;;;;;;;20.20;15.70;;;;;;;8.29;100.00;97547.35;216791;1261;141145;-71
2024/02/11 18:06:00;;;;;;;16.20;12.50;;;;;;;8.28;100.00;97551.17;216858;1262;140865;-70
2024/02/11 18:11:09;;;;;;;14.20;10.80;;;;;;;8.26;100.00;97553.42;216775;1259;140432;-71
2024/02/11 18:16:16;;;;;;;17.60;13.90;;;;;;;8.24;100.00;97552.34;216721;1258;140843;-71
2024/02/11 18:21:21;;;;;;;17.80;12.60;;;;;;;8.20;100.00;97553.20;216838;1257;140797;-71
2024/02/11 18:26:27;;;;;;;23.00;14.20;;;;;;;8.16;100.00;97557.77;216810;1258;140283;-70
2024/02/11 18:31:59;;;;;;;17.60;12.70;;;;;;;8.13;100.00;97552.64;216839;1257;140310;-72
2024/02/11 18:37:04;;;;;;;15.30;13.10;;;;;;;8.12;100.00;97556.52;217220;1262;140297;-74
2024/02/11 18:42:09;;;;;;;17.60;13.80;;;;;;;8.11;100.00;97561.09;217614;1258;140459;-70
2024/02/11 18:47:15;;;;;;;16.50;13.50;;;;;;;8.09;100.00;97556.37;217905;1257;140575;-71
2024/02/11 18:52:20;;;;;;;18.70;13.80;;;;;;;8.07;100.00;97558.97;216842;1257;140301;-71
2024/02/11 18:57:28;;;;;;;19.50;13.00;;;;;;;8.07;100.00;97560.40;217141;1258;141307;-71
2024/02/11 19:02:33;;;;;;;20.40;15.10;;;;;;;8.06;100.00;97559.13;217155;1258;140736;-68
2024/02/11 19:07:42;;;;;;;17.70;14.20;;;;;;;8.05;100.00;97563.64;217115;1260;141434;-71
2024/02/11 19:12:47;;;;;;;18.60;15.30;;;;;;;8.07;100.00;97562.84;216807;1259;155415;-75
2024/02/11 19:17:51;;;;;;;22.40;16.60;;;;;;;8.09;100.00;97566.29;216794;1257;140979;-71
2024/02/11 19:22:55;;;;;;;23.80;17.40;;;;;;;8.12;100.00;97562.94;216941;1257;142064;-77
2024/02/11 19:27:59;;;;;;;21.10;14.80;;;;;;;8.14;100.00;97563.61;217569;1259;140651;-71
2024/02/11 19:33:04;;;;;;;22.30;17.40;;;;;;;8.17;100.00;97561.70;216923;1262;140879;-70
2024/02/11 19:38:09;;;;;;;31.60;19.70;;;;;;;8.17;100.00;97558.30;217419;1261;140735;-70
2024/02/11 19:43:13;;;;;;;22.10;16.00;;;;;;;8.19;100.00;97557.61;217337;1259;141267;-70
2024/02/11 19:48:17;;;;;;;27.30;18.00;;;;;;;8.20;100.00;97553.46;216921;1261;140352;-72
2024/02/11 19:53:20;;;;;;;26.90;15.70;;;;;;;8.20;100.00;97560.84;217296;1257;140561;-74
2024/02/11 19:58:40;;;;;;;25.30;15.50;;;;;;;8.20;100.00;97564.83;218524;1257;140625;-72
2024/02/11 20:04:03;;;;;;;24.90;17.10;;;;;;;8.21;100.00;97564.44;217744;1262;140989;-71
2024/02/11 20:09:12;;;;;;;19.00;13.50;;;;;;;8.22;100.00;97566.67;216844;1260;140866;-74
2024/02/11 20:14:18;;;;;;;19.10;13.30;;;;;;;8.22;100.00;97567.47;217394;1261;141363;-74
2024/02/11 20:19:26;;;;;;;22.20;15.10;;;;;;;8.23;100.00;97566.19;217107;1261;140964;-74
2024/02/11 20:24:30;;;;;;;24.50;15.80;;;;;;;8.21;100.00;97567.47;216783;1258;140577;-74
2024/02/11 20:29:35;;;;;;;18.40;13.90;;;;;;;8.20;100.00;97566.58;217783;1258;141458;-74
2024/02/11 20:34:41;;;;;;;20.40;14.50;;;;;;;8.19;100.00;97568.02;217077;1258;140366;-70
2024/02/11 20:39:45;;;;;;;22.80;13.20;;;;;;;8.19;100.00;97575.23;217406;1259;140433;-73
2024/02/11 20:44:50;;;;;;;18.00;12.10;;;;;;;8.22;100.00;97572.25;217344;1259;142163;-74
2024/02/11 20:49:54;;;;;;;17.50;12.60;;;;;;;8.24;100.00;97573.14;217269;1260;141000;-74
2024/02/11 20:54:59;;;;;;;17.60;13.50;;;;;;;8.25;100.00;97575.34;216999;1257;140323;-73
2024/02/11 21:00:11;;;;;;;19.70;13.00;;;;;;;8.26;100.00;97574.92;217133;1257;141207;-72
2024/02/11 21:05:19;;;;;;;17.00;12.20;;;;;;;8.27;100.00;97574.53;216840;1258;140498;-73
2024/02/11 21:10:27;;;;;;;19.60;11.80;;;;;;;8.28;100.00;97572.14;217538;1257;141368;-74
2024/02/11 21:15:33;;;;;;;16.80;11.40;;;;;;;8.28;100.00;97569.64;217034;1260;141580;-75
2024/02/11 21:20:38;;;;;;;17.90;12.80;;;;;;;8.29;100.00;97573.20;216987;1259;140817;-71
2024/02/11 21:25:43;;;;;;;14.40;10.90;;;;;;;8.30;100.00;97580.95;216997;1261;140406;-74
2024/02/11 21:30:48;;;;;;;14.60;11.20;;;;;;;8.31;100.00;97579.88;216856;1258;141288;-74
2024/02/11 21:35:54;;;;;;;16.50;11.30;;;;;;;8.30;100.00;97576.48;216846;1259;140248;-72
2024/02/11 21:41:03;;;;;;;13.70;11.00;;;;;;;8.30;100.00;97580.68;217089;1262;142055;-72
2024/02/11 21:46:09;;;;;;;14.60;9.80;;;;;;;8.31;100.00;97581.27;218125;1259;140851;-74
2024/02/11 21:51:13;;;;;;;16.00;11.20;;;;;;;8.33;100.00;97584.48;217173;1259;143063;-75
2024/02/11 21:56:16;;;;;;;12.20;8.10;;;;;;;8.34;100.00;97589.25;216933;1258;141220;-74
2024/02/11 22:01:23;;;;;;;14.90;11.80;;;;;;;8.34;100.00;97591.73;217343;1259;140184;-73
2024/02/11 22:06:27;;;;;;;16.00;10.70;;;;;;;8.36;100.00;97593.38;216717;1261;139969;-75
2024/02/11 22:11:31;;;;;;;14.70;10.60;;;;;;;8.38;100.00;97596.51;216979;1261;142367;-71
2024/02/11 22:16:38;;;;;;;12.40;10.80;;;;;;;8.38;100.00;97599.70;216928;1261;140512;-72
2024/02/11 22:21:43;;;;;;;15.50;11.20;;;;;;;8.38;100.00;97601.29;217188;1257;140431;-73
2024/02/11 22:26:47;;;;;;;16.40;12.10;;;;;;;8.36;100.00;97602.41;217130;1258;140493;-72
2024/02/11 22:31:54;;;;;;;18.60;13.70;;;;;;;8.36;100.00;97605.48;217694;1257;141478;-72
2024/02/11 22:36:59;;;;;;;16.30;11.70;;;;;;;8.36;100.00;97608.83;216823;1260;140538;-74
2024/02/11 22:42:05;;;;;;;15.50;11.00;;;;;;;8.35;100.00;97604.75;216851;1257;141931;-70
2024/02/11 22:47:10;;;;;;;;;;;;;;;8.35;100.00;97611.01;217053;1261;141223;-70
2024/02/11 22:52:17;;;;;;;19.50;15.30;;;;;;;8.32;100.00;97614.79;217472;1258;127422;-72